createdAt,value
2018-05-09T00:00:15.290Z,99.90
2018-05-09T00:02:42.794Z,99.90
2018-05-09T00:05:10.302Z,99.90
2018-05-09T00:07:37.801Z,99.90
2018-05-09T00:10:05.308Z,99.90
2018-05-09T00:12:33.170Z,99.90
2018-05-09T00:17:57.700Z,99.90
2018-05-09T00:20:25.207Z,99.90
2018-05-09T01:17:35.774Z,99.90
2018-05-09T01:25:50.348Z,99.90
2018-05-09T01:28:17.852Z,99.90
2018-05-09T01:30:45.356Z,99.90
2018-05-09T01:33:13.041Z,99.90
2018-05-09T01:35:40.546Z,99.90
2018-05-09T01:38:08.046Z,99.90
2018-05-09T01:40:35.555Z,99.90
2018-05-09T01:43:03.069Z,99.90
2018-05-09T01:45:30.574Z,99.90
2018-05-09T01:47:58.078Z,99.90
2018-05-09T01:50:25.667Z,99.90
2018-05-09T01:52:53.166Z,99.90
2018-05-09T01:55:21.437Z,99.90
2018-05-09T01:57:48.940Z,99.90
2018-05-09T02:00:16.437Z,99.90
2018-05-09T02:02:43.934Z,99.90
2018-05-09T02:05:12.202Z,99.90
2018-05-09T02:07:40.523Z,99.90
2018-05-09T02:10:08.026Z,99.90
2018-05-09T02:12:36.301Z,99.90
2018-05-09T02:15:04.577Z,99.90
2018-05-09T02:17:32.128Z,99.90
2018-05-09T02:20:16.253Z,99.90
2018-05-09T02:22:43.917Z,99.90
2018-05-09T02:25:11.416Z,99.90
2018-05-09T02:27:39.683Z,99.90
2018-05-09T02:30:07.193Z,99.90
2018-05-09T02:32:34.711Z,99.90
2018-05-09T02:35:02.990Z,99.90
2018-05-09T02:37:30.523Z,99.90
2018-05-09T02:39:58.048Z,99.90
2018-05-09T02:42:31.343Z,99.90
2018-05-09T02:44:58.881Z,99.90
2018-05-09T02:47:26.400Z,99.90
2018-05-09T02:49:53.957Z,99.90
2018-05-09T02:52:21.434Z,99.90
2018-05-09T02:54:49.710Z,99.90
2018-05-09T02:57:18.019Z,99.90
2018-05-09T02:59:45.527Z,99.90
2018-05-09T03:02:13.026Z,99.90
2018-05-09T03:04:40.535Z,99.90
2018-05-09T03:07:08.042Z,99.90
2018-05-09T03:09:36.314Z,99.90
2018-05-09T03:12:04.590Z,99.90
2018-05-09T03:14:32.885Z,99.90
2018-05-09T03:17:00.397Z,99.90
2018-05-09T03:22:20.439Z,99.90
2018-05-09T03:24:47.941Z,99.90
2018-05-09T03:27:15.442Z,99.90
2018-05-09T03:29:43.993Z,99.90
2018-05-09T03:32:12.199Z,99.90
2018-05-09T03:34:40.469Z,99.90
2018-05-09T03:37:07.971Z,99.90
2018-05-09T03:39:35.474Z,99.90
2018-05-09T03:42:02.985Z,99.90
2018-05-09T03:44:30.492Z,99.90
2018-05-09T03:46:58.170Z,99.90
2018-05-09T03:49:26.446Z,99.90
2018-05-09T03:51:53.951Z,99.90
2018-05-09T03:54:21.455Z,99.90
2018-05-09T03:56:48.962Z,99.90
2018-05-09T03:59:16.469Z,99.90
2018-05-09T04:01:55.687Z,99.90
2018-05-09T04:04:35.005Z,99.90
2018-05-09T04:07:14.322Z,99.90
2018-05-09T04:09:54.450Z,99.90
2018-05-09T04:12:22.749Z,99.90
2018-05-09T04:20:57.345Z,99.90
2018-05-09T04:26:30.998Z,99.90
2018-05-09T04:28:58.501Z,99.90
2018-05-09T04:31:26.006Z,99.90
2018-05-09T04:33:53.506Z,99.90
2018-05-09T04:36:21.958Z,99.90
2018-05-09T04:38:49.393Z,99.90
2018-05-09T04:41:16.905Z,99.90
2018-05-09T04:43:45.174Z,99.90
2018-05-09T04:46:12.707Z,99.90
2018-05-09T04:48:40.206Z,99.90
2018-05-09T04:51:07.711Z,99.90
2018-05-09T04:53:35.231Z,99.90
2018-05-09T04:56:02.741Z,99.90
2018-05-09T04:58:30.245Z,99.90
2018-05-09T05:00:57.759Z,99.90
2018-05-09T05:03:25.257Z,99.90
2018-05-09T05:05:52.758Z,99.90
2018-05-09T05:08:20.265Z,99.90
2018-05-09T05:10:48.541Z,99.90
2018-05-09T05:13:16.815Z,99.90
2018-05-09T05:15:45.123Z,99.90
2018-05-09T05:18:14.402Z,99.90
2018-05-09T05:20:41.908Z,99.90
2018-05-09T05:23:09.421Z,99.90
2018-05-09T05:25:37.054Z,99.90
2018-05-09T05:28:04.554Z,99.90
2018-05-09T05:30:32.070Z,99.90
2018-05-09T05:32:59.580Z,99.90
2018-05-09T05:35:27.086Z,99.90
2018-05-09T05:37:54.587Z,99.90
2018-05-09T05:40:22.095Z,99.90
2018-05-09T05:42:49.663Z,99.90
2018-05-09T05:45:17.336Z,99.90
2018-05-09T05:47:44.686Z,99.90
2018-05-09T05:50:12.189Z,99.90
2018-05-09T05:52:39.701Z,99.90
2018-05-09T05:55:07.206Z,99.90
2018-05-09T05:57:34.715Z,99.90
2018-05-09T06:00:02.346Z,99.90
2018-05-09T06:02:29.857Z,99.90
2018-05-09T06:04:58.129Z,99.90
2018-05-09T06:07:26.411Z,99.90
2018-05-09T06:09:54.685Z,99.90
2018-05-09T06:12:23.036Z,99.90
2018-05-09T07:13:25.521Z,99.90
2018-05-09T07:21:49.102Z,99.90
2018-05-09T07:24:16.648Z,99.90
2018-05-09T07:26:44.157Z,99.90
2018-05-09T07:29:11.722Z,99.90
2018-05-09T07:31:39.223Z,99.90
2018-05-09T07:34:06.726Z,99.90
2018-05-09T07:36:34.226Z,99.90
2018-05-09T07:39:02.493Z,99.90
2018-05-09T07:41:30.770Z,99.90
2018-05-09T07:43:59.045Z,99.90
2018-05-09T07:46:27.313Z,99.90
2018-05-09T07:48:55.586Z,99.90
2018-05-09T07:51:23.097Z,99.90
2018-05-09T07:53:50.604Z,99.90
2018-05-09T07:56:18.113Z,99.90
2018-05-09T07:58:45.614Z,99.90
2018-05-09T08:01:13.126Z,99.90
2018-05-09T08:03:40.634Z,99.90
2018-05-09T08:06:08.203Z,99.90
2018-05-09T08:08:35.678Z,99.90
2018-05-09T08:11:03.956Z,99.90
2018-05-09T08:19:25.145Z,99.80
2018-05-09T08:21:59.669Z,99.80
2018-05-09T08:24:27.329Z,99.50
2018-05-09T08:26:54.826Z,99.50
2018-05-09T08:29:22.326Z,98.80
2018-05-09T08:31:49.833Z,99.00
2018-05-09T08:34:17.339Z,99.20
2018-05-09T08:36:44.911Z,97.40
2018-05-09T08:39:12.361Z,97.90
2018-05-09T08:41:39.867Z,97.80
2018-05-09T08:44:07.378Z,98.70
2018-05-09T08:46:34.874Z,97.30
2018-05-09T08:49:02.375Z,96.90
2018-05-09T08:51:30.639Z,97.50
2018-05-09T08:53:58.136Z,97.40
2018-05-09T08:56:25.634Z,97.40
2018-05-09T08:58:53.173Z,97.10
2018-05-09T09:01:20.670Z,96.80
2018-05-09T09:03:48.173Z,96.10
2018-05-09T09:06:15.672Z,95.20
2018-05-09T09:08:43.169Z,95.00
2018-05-09T09:11:11.442Z,94.80
2018-05-09T09:13:39.706Z,94.00
2018-05-09T09:16:07.212Z,94.00
2018-05-09T09:18:34.718Z,94.20
2018-05-09T09:21:02.237Z,93.90
2018-05-09T09:23:29.738Z,92.60
2018-05-09T09:25:57.238Z,91.90
2018-05-09T09:28:25.051Z,91.40
2018-05-09T09:30:52.564Z,90.80
2018-05-09T09:33:20.069Z,88.30
2018-05-09T09:35:47.570Z,85.90
2018-05-09T09:38:15.071Z,85.40
2018-05-09T09:40:42.574Z,82.50
2018-05-09T09:43:10.844Z,83.20
2018-05-09T09:45:38.361Z,83.20
2018-05-09T09:48:05.857Z,86.40
2018-05-09T09:50:33.404Z,87.30
2018-05-09T09:53:00.887Z,83.30
2018-05-09T09:55:29.145Z,80.60
2018-05-09T09:57:56.640Z,80.60
2018-05-09T10:00:24.816Z,78.80
2018-05-09T10:02:52.319Z,80.40
2018-05-09T10:05:19.822Z,77.00
2018-05-09T10:07:48.096Z,65.70
2018-05-09T10:10:16.360Z,63.30
2018-05-09T10:12:43.863Z,63.00
2018-05-09T10:15:11.358Z,62.30
2018-05-09T10:17:38.858Z,60.60
2018-05-09T11:26:09.209Z,46.10
2018-05-09T11:28:36.715Z,46.20
2018-05-09T11:31:04.223Z,46.70
2018-05-09T11:33:31.750Z,45.70
2018-05-09T11:35:59.255Z,42.70
2018-05-09T11:38:27.529Z,38.10
2018-05-09T11:40:55.039Z,38.10
2018-05-09T11:43:22.786Z,40.00
2018-05-09T11:45:50.299Z,38.50
2018-05-09T11:48:17.802Z,38.70
2018-05-09T11:50:45.302Z,37.60
2018-05-09T11:53:12.811Z,37.70
2018-05-09T11:55:40.326Z,38.80
2018-05-09T11:58:07.838Z,37.90
2018-05-09T12:00:35.357Z,38.80
2018-05-09T12:03:02.861Z,37.90
2018-05-09T12:05:30.362Z,38.40
2018-05-09T12:07:57.862Z,37.10
2018-05-09T12:10:26.184Z,36.20
2018-05-09T12:12:53.657Z,36.10
2018-05-09T12:18:13.590Z,33.80
2018-05-09T13:24:24.498Z,35.50
2018-05-09T13:26:52.765Z,35.00
2018-05-09T13:29:20.277Z,35.00
2018-05-09T13:31:47.787Z,34.90
2018-05-09T13:34:16.080Z,34.10
2018-05-09T13:36:44.360Z,36.90
2018-05-09T13:39:12.629Z,36.10
2018-05-09T13:41:40.910Z,36.50
2018-05-09T13:44:09.187Z,36.60
2018-05-09T13:46:37.459Z,36.30
2018-05-09T13:49:05.744Z,35.70
2018-05-09T13:51:34.077Z,35.80
2018-05-09T13:54:01.619Z,35.80
2018-05-09T13:56:29.105Z,35.80
2018-05-09T13:58:56.614Z,35.10
2018-05-09T14:01:24.120Z,35.80
2018-05-09T14:03:51.629Z,35.20
2018-05-09T14:06:19.125Z,36.20
2018-05-09T14:08:46.625Z,35.20
2018-05-09T14:11:14.895Z,36.30
2018-05-09T14:13:42.405Z,36.30
2018-05-09T14:16:09.911Z,35.60
2018-05-09T14:18:57.507Z,36.10
2018-05-09T14:21:34.670Z,35.40
2018-05-09T15:18:54.817Z,38.00
2018-05-09T15:24:28.521Z,38.90
2018-05-09T15:26:56.177Z,38.70
2018-05-09T15:29:23.681Z,38.30
2018-05-09T15:31:51.177Z,38.60
2018-05-09T15:34:18.689Z,38.60
2018-05-09T15:36:46.198Z,37.30
2018-05-09T15:39:13.722Z,36.50
2018-05-09T15:41:41.222Z,36.90
2018-05-09T15:44:08.730Z,38.10
2018-05-09T15:46:36.235Z,38.70
2018-05-09T15:49:03.758Z,38.50
2018-05-09T15:51:31.553Z,38.00
2018-05-09T15:53:59.057Z,37.80
2018-05-09T15:56:27.332Z,37.50
2018-05-09T15:58:55.601Z,37.20
2018-05-09T16:01:23.873Z,37.50
2018-05-09T16:03:51.388Z,37.50
2018-05-09T16:06:18.899Z,38.30
2018-05-09T16:08:47.174Z,39.40
2018-05-09T16:11:16.281Z,39.30
2018-05-09T16:13:44.554Z,39.50
2018-05-09T16:16:12.822Z,39.80
2018-05-09T16:18:41.086Z,40.60
2018-05-09T16:21:08.586Z,40.60
2018-05-09T16:23:36.235Z,40.80
2018-05-09T16:26:04.506Z,40.80
2018-05-09T16:28:32.773Z,40.50
2018-05-09T16:31:01.046Z,41.30
2018-05-09T16:33:28.550Z,41.40
2018-05-09T16:35:56.048Z,41.50
2018-05-09T16:38:23.546Z,42.10
2018-05-09T16:40:51.809Z,44.20
2018-05-09T16:43:20.072Z,44.50
2018-05-09T16:45:47.575Z,44.40
2018-05-09T16:48:15.086Z,45.40
2018-05-09T16:50:42.621Z,45.90
2018-05-09T16:53:10.145Z,47.30
2018-05-09T16:55:37.651Z,47.90
2018-05-09T16:58:05.219Z,47.70
2018-05-09T17:00:32.715Z,48.40
2018-05-09T17:03:00.985Z,48.20
2018-05-09T17:05:29.348Z,48.10
2018-05-09T17:07:56.778Z,48.00
2018-05-09T17:10:24.281Z,47.10
2018-05-09T17:12:52.547Z,48.50
2018-05-09T17:18:13.634Z,48.80
2018-05-09T17:20:41.158Z,49.30
2018-05-09T17:26:06.957Z,51.20
2018-05-09T17:28:34.473Z,51.50
2018-05-09T17:31:01.971Z,51.30
2018-05-09T17:33:29.473Z,51.80
2018-05-09T17:35:56.970Z,52.00
2018-05-09T17:38:24.482Z,52.70
2018-05-09T17:40:52.747Z,53.30
2018-05-09T17:43:21.018Z,54.20
2018-05-09T17:45:48.517Z,54.20
2018-05-09T17:48:16.009Z,55.00
2018-05-09T17:50:43.501Z,56.50
2018-05-09T17:53:11.758Z,57.60
2018-05-09T17:55:39.245Z,57.00
2018-05-09T17:58:07.504Z,59.60
2018-05-09T18:00:34.996Z,59.60
2018-05-09T18:03:02.490Z,60.00
2018-05-09T18:05:29.994Z,61.50
2018-05-09T18:07:58.271Z,64.90
2018-05-09T18:10:26.529Z,66.90
2018-05-09T18:12:54.031Z,66.90
2018-05-09T18:15:21.535Z,68.90
2018-05-09T18:17:49.037Z,71.00
2018-05-09T18:20:16.530Z,73.20
2018-05-09T18:22:44.025Z,75.50
2018-05-09T18:25:11.519Z,76.90
2018-05-09T18:27:39.022Z,78.90
2018-05-09T18:30:06.513Z,81.00
2018-05-09T18:32:34.773Z,84.80
2018-05-09T18:35:02.269Z,84.80
2018-05-09T18:37:29.766Z,86.40
2018-05-09T18:39:57.298Z,88.00
2018-05-09T18:42:24.795Z,89.20
2018-05-09T18:44:52.309Z,90.40
2018-05-09T18:47:19.808Z,91.00
2018-05-09T18:49:47.309Z,91.40
2018-05-09T18:52:15.700Z,92.40
2018-05-09T18:54:43.198Z,92.30
2018-05-09T18:57:10.700Z,93.10
2018-05-09T18:59:39.051Z,94.00
2018-05-09T19:02:07.242Z,94.20
2018-05-09T19:04:34.745Z,94.20
2018-05-09T19:07:02.246Z,94.50
2018-05-09T19:09:29.741Z,95.00
2018-05-09T19:11:58.006Z,96.00
2018-05-09T19:17:19.401Z,96.00
2018-05-09T19:19:46.898Z,96.40
2018-05-09T19:22:15.164Z,97.10
2018-05-09T19:24:42.685Z,97.10
2018-05-09T19:27:10.182Z,97.60
2018-05-09T19:29:37.689Z,98.00
2018-05-09T19:32:05.191Z,98.40
2018-05-09T19:34:32.686Z,98.70
2018-05-09T19:37:00.944Z,99.30
2018-05-09T19:39:28.466Z,99.30
2018-05-09T19:41:55.964Z,99.50
2018-05-09T19:44:24.230Z,99.80
2018-05-09T19:46:51.731Z,99.80
2018-05-09T19:49:19.233Z,99.90
2018-05-09T19:51:46.729Z,99.90
2018-05-09T19:54:15.123Z,99.90
2018-05-09T19:56:42.634Z,99.90
2018-05-09T19:59:10.134Z,99.90
2018-05-09T20:01:37.625Z,99.90
2018-05-09T20:04:05.118Z,99.90
2018-05-09T20:06:32.621Z,99.90
2018-05-09T20:09:00.117Z,99.90
2018-05-09T20:11:27.822Z,99.90
2018-05-09T20:13:56.142Z,99.90
2018-05-09T20:16:24.369Z,99.90
2018-05-09T20:19:15.886Z,99.90
2018-05-09T20:21:56.905Z,99.90
2018-05-09T21:19:10.326Z,99.90
2018-05-09T21:24:31.225Z,99.90
2018-05-09T21:26:58.731Z,99.90
2018-05-09T21:29:26.228Z,99.90
2018-05-09T21:31:54.493Z,99.90
2018-05-09T21:34:22.752Z,99.90
2018-05-09T21:36:50.262Z,99.90
2018-05-09T21:39:17.770Z,99.90
2018-05-09T21:41:45.353Z,99.90
2018-05-09T21:44:12.813Z,99.90
2018-05-09T21:46:41.078Z,99.90
2018-05-09T21:49:09.347Z,99.90
2018-05-09T21:51:36.850Z,99.90
2018-05-09T21:54:04.355Z,99.90
2018-05-09T21:56:31.860Z,99.90
2018-05-09T21:58:59.402Z,99.90
2018-05-09T22:01:27.666Z,99.90
2018-05-09T22:03:55.963Z,99.90
2018-05-09T22:06:23.485Z,99.90
2018-05-09T22:08:50.990Z,99.90
2018-05-09T22:11:18.493Z,99.90
2018-05-09T22:25:26.446Z,99.90
2018-05-09T22:27:54.133Z,99.90
2018-05-09T22:30:21.673Z,99.90
2018-05-09T22:32:49.186Z,99.90
2018-05-09T22:35:17.453Z,99.90
2018-05-09T22:37:44.964Z,99.90
2018-05-09T22:40:12.478Z,99.90
2018-05-09T22:42:39.983Z,99.90
2018-05-09T22:45:07.487Z,99.90
2018-05-09T22:47:34.985Z,99.90
2018-05-09T22:50:02.485Z,99.90
2018-05-09T22:52:29.991Z,99.90
2018-05-09T22:54:58.276Z,99.90
2018-05-09T22:57:25.797Z,99.90
2018-05-09T22:59:53.305Z,99.90
2018-05-09T23:02:20.819Z,99.90
2018-05-09T23:04:48.338Z,99.90
2018-05-09T23:07:15.837Z,99.90
2018-05-09T23:09:43.346Z,99.90
2018-05-09T23:12:11.667Z,99.90
2018-05-09T23:14:39.168Z,99.90
2018-05-09T23:17:06.769Z,99.90
2018-05-09T23:25:30.073Z,99.90
2018-05-09T23:27:57.578Z,99.90
2018-05-09T23:30:25.854Z,99.90
2018-05-09T23:32:54.131Z,99.90
2018-05-09T23:35:22.410Z,99.90
2018-05-09T23:37:50.731Z,99.90
2018-05-09T23:40:18.217Z,99.90
2018-05-09T23:42:45.881Z,99.90
2018-05-09T23:45:13.389Z,99.90
2018-05-09T23:47:40.895Z,99.90
2018-05-09T23:50:08.402Z,99.90
2018-05-09T23:52:35.918Z,99.90
2018-05-09T23:55:03.423Z,99.90
2018-05-09T23:57:30.935Z,99.90
2018-05-09T23:59:58.450Z,99.90
